Niagara District Airport
CYSN : now visible

Airfield :











YOU CAN JOIN US ON...

 
LOGIN :

Register | Disclaimer

   EN    FR    IT 

 









Legend :    VFR   Marginal VFR   IFR   Intensive IFR   Very Intensive IFR
Visi :
Ceiling :
>= 8 km
>= 3000ft
5 to 8 km
1000 to 3000 ft
1500m to 5 km
500 to 1000 ft
800 to 1500m
200 to 500 ft
< 800m
< 200 ft
Symbols :   Thunderstorms  Fog  Heavy snow  Heavy precipitations  Wind > 20 kt






- Airport Elevation : 321 ft
- IATA code : YCM


CYSN - Niagara District

CURRENT METAR :
  • 072100Z 01007KT 15SM FEW045 25/11 A3011 RMK SC1 SLP198 DENSITY ALT 1400FT

EXPIRED METARs :
  • 072000Z 02008KT 15SM FEW040 FEW070 SCT220 25/10 A3012 RMK SC1AC1CI1 SLP200 DENSITY ALT 1400FT
  • 071900Z 04008KT 15SM FEW040 SCT079 25/12 A3013 RMK SC2AC2 SLP204 DENSITY ALT 1300FT

TAF TAF CYSN
Valid from the 07 at 20:00 until the 08 at 01:00 UTC


071940Z 0720/0801 04009KT P6SM SKC RMK NXT FCST WILL BE ISSUED AT 081245Z
CZYZ FIR / North America



MET'MAP, your aeronautical weather chart ! - Copyright ORBIFLY December 2007 - Disclaimer

ORBIFLY MET'MAP TEAM :

Programming & Development : Alexandra Zaïnal
Concept & original design : Baudouin d'Aumeries
Assistance for programming : Marc-Olivier Méhu
Technical & hardware support : Manuel Goepfert

Contact : metmap@orbifly.com




SOURCES & CREDITS :

   NOAA       Earth
Advisory